Terminal Aerodrome Forecast
Issued by NWS

Home | Current Version | Previous Version | Text Only | Print | Product List | Glossary On
Versions: 1 2 3 4 5 6 7 8 9 10 11 12 13 14 15 16 17 18 19 20 21 22 23 24
000
FTAK31 PAJN 141300 AAA
TAFASI
TAF AMD
PASI 141338Z 1414/1512 VRB03KT 2SM BR VCSH SCT005 BKN012 OVC025
      TEMPO 1414/1416 1/2SM FG VV005
     FM141800 27005KT P6SM VCSH BKN025 OVC050
     FM142100 31006KT P6SM SCT025 BKN050
     FM150000 31009KT P6SM BKN050 BKN100
     FM150600 31006KT P6SM BKN120=

USA.gov is the U.S. government's official web portal to all federal, state and local government web resources and services.